Airfield :
LOGIN :

Register | Disclaimer

   EN    FR    IT 

 










Legend :    VFR   Marginal VFR   IFR   Intensive IFR   Very Intensive IFR
Visi :
Ceiling :
>= 8 km
>= 3000ft
5 to 8 km
1000 to 3000 ft
1500m to 5 km
500 to 1000 ft
800 to 1500m
200 to 500 ft
< 800m
< 200 ft
Symbols :   Thunderstorms  Fog  Heavy snow  Heavy precipitations  Wind > 20 kt
SIGMETs :     Misc.  Thunderstorms  Icing  Turbulence  Mountain Waves  Volcanic Ashes







- Airport Elevation : 274 ft
- IATA code : PUY


LDPL - Pula

CURRENT METAR :
  • 230700Z 09004KT 9999 FEW030 BKN058 12/11 Q1019 NOSIG

EXPIRED METARs :
  • 230630Z 10004KT 9999 FEW030 BKN058 12/10 Q1019 NOSIG
  • 230600Z 09004KT 9999 BKN058 12/10 Q1019 NOSIG
  • 230530Z 09005KT 9999 OVC050 11/10 Q1019 NOSIG
  • 230500Z 10005KT 9999 FEW045 OVC058 11/10 Q1019 NOSIG
  • 230430Z AUTO 10005KT CAVOK 12/11 Q1019 NOSIG

TAF TAF LDPL
Valid from the 23 at 06:00 until the 24 at 06:00 UTC


230525Z 2306/2406 VRB02KT 9999 BKN050 TX15/2312Z TN07/2323Z
No reported NOTAMs for that airfield.



MET'MAP, your aeronautical weather chart ! - Copyright ORBIFLY December 2007 - Disclaimer

ORBIFLY MET'MAP TEAM :

Programming & Development : Alexandra Zaïnal
Concept & Development : Baudouin d'Aumeries
Co-Development & Prog : Marc-Olivier Méhu
Technical & hardware support : Manuel Goepfert

Contact : metmap@orbifly.com




SOURCES & CREDITS :

   NOAA